logo
Rechercher aéroport 
image banner adimage banner adimage banner ad
image banner ad

FALQ - El Mirrador

Situé à Ardmore, South Africa

ICAO - FALQ, IATA -

Données fournies par Airmate  

Information générale

Coordonnées: S28°59'10" E29°28'48"
Élévation : 3897 feet MSL.
 
Voir autres Aéroports à Kwazulu-Natal

Données opérationnelles

Special qualification required
Heure actuelle UTC:
Heure actuelle locale:
Météo à : - ( 0 km )
METAR: TXKF 251655Z 05007KT 360V090 9999 FEW020 FEW180 BKN300 26/20 Q1014
Voir NOTAMs / SUP AIP / TFR affectant cet aéroport [VIEW]
Fréquences de communication: [VIEW]

Pistes:

Identifiant RWYQFULongueur (ft)Largeur (ft)SurfaceLDA (ft)
0550°269082SAND
23230°269082SAND

Coordonnées de l'aéroport

Adresse: Ardmore South Africa

Vue satellite de FALQ